Svanen — LKXK — position and weather

sailwx.info

Track history (hours):
 
Tides and Currents Weather Stations Pressure Air Temp Water Temp Dewpoint Dewpoint Depression Visibility Wind Speed Wind Dir Waves Ship Positions

Svanen (Norway)

Ship's website: http://www.svanen.no/english/english.php1

Last reported at 2014-Aug-30 13:27 UTC. Time now 2014-Aug-30 14:28 UTC.
Position N 59°54' E 010°42'.

Length 27 m; draft 2.8 m.

Type: Sailing vessel. MMSI: 259173000.

Date/timePositionNaut miles runAvg speedWind from/ knotsBaromVisibWave heightAir tempDewpointWater temp
2014-Aug-30 13:27N 59°54' E 010°42'0 0.0
2014-Aug-30 12:24N 59°54' E 010°42'0 0.0
2014-Aug-30 11:24N 59°54' E 010°42'0 0.0
2014-Aug-30 10:30N 59°54' E 010°42'0 0.0
2014-Aug-30 09:33N 59°54' E 010°42'0 0.0
2014-Aug-30 08:27N 59°54' E 010°42'0 0.0
2014-Aug-30 07:24N 59°54' E 010°42'0 0.0
2014-Aug-30 06:27N 59°54' E 010°42'0 0.0
2014-Aug-30 05:30N 59°54' E 010°42'0 0.0
2014-Aug-30 04:09N 59°54' E 010°42'0 0.0
2014-Aug-30 03:15N 59°54' E 010°42'0 0.0
2014-Aug-30 02:33N 59°54' E 010°42'0 0.0
2014-Aug-30 01:15N 59°54' E 010°42'0 0.0
2014-Aug-30 00:33N 59°54' E 010°42'0 0.0
2014-Aug-29 23:33N 59°54' E 010°42'0 0.0
2014-Aug-29 22:33N 59°54' E 010°42'0 0.0
2014-Aug-29 21:30N 59°54' E 010°42'0 0.0
2014-Aug-29 20:30N 59°54' E 010°42'0 0.0
2014-Aug-29 19:33N 59°54' E 010°42'0 0.0
2014-Aug-29 18:27N 59°54' E 010°42'0 0.0
2014-Aug-29 17:30N 59°54' E 010°42'0 0.0
2014-Aug-29 16:15N 59°54' E 010°42'0 0.0
2014-Aug-29 15:33N 59°54' E 010°42'0 0.0
2014-Aug-29 14:33N 59°54' E 010°42'0 0.0
2014-Aug-29 13:27N 59°54' E 010°42'0 0.0
2014-Aug-29 12:30N 59°54' E 010°42'0 0.0
2014-Aug-29 11:33N 59°54' E 010°42'0 0.0
2014-Aug-29 10:30N 59°54' E 010°42'0 0.0
2014-Aug-29 09:30N 59°54' E 010°42'0 0.0
2014-Aug-29 08:21N 59°54' E 010°42'0 0.0
2014-Aug-29 06:21N 59°54' E 010°42'0 0.0
2014-Aug-29 01:12N 59°54' E 010°42'0 0.0
2014-Aug-29 00:18N 59°54' E 010°42'0 0.0
2014-Aug-28 23:30N 59°54' E 010°42'0 0.0
2014-Aug-28 22:28N 59°54' E 010°42'0 0.0
2014-Aug-28 21:33N 59°54' E 010°42'0 0.0
2014-Aug-28 20:22N 59°54' E 010°42'0 0.0
2014-Aug-28 19:24N 59°54' E 010°42'0 0.0
2014-Aug-28 18:24N 59°54' E 010°42'0 0.0
2014-Aug-28 17:30N 59°54' E 010°42'0 0.0
2014-Aug-28 16:30N 59°54' E 010°42'0 0.0
2014-Aug-28 15:33N 59°54' E 010°42'0 0.0
2014-Aug-28 14:30N 59°54' E 010°42'0 0.0
2014-Aug-28 13:30N 59°54' E 010°42'0 0.2
2014-Aug-28 12:33N 59°54' E 010°42'24 1.0
2014-Aug-27 12:33N 59°31' E 010°36'6 6.3
2014-Aug-27 11:33N 59°25' E 010°36'6 6.6
2014-Aug-27 10:33N 59°19' E 010°40'5 5.4
2014-Aug-27 09:33N 59°14' E 010°44'1 1.4
2014-Aug-27 08:33N 59°13' E 010°47'0 0.0
2014-Aug-27 07:33N 59°13' E 010°47'0 0.0
2014-Aug-27 06:33N 59°13' E 010°47'0 0.0
2014-Aug-27 05:33N 59°13' E 010°47'0 0.0
2014-Aug-27 04:33N 59°13' E 010°47'0 0.0
2014-Aug-27 03:33N 59°13' E 010°47'0 0.0
2014-Aug-27 02:34N 59°13' E 010°47'0 0.0
2014-Aug-27 01:33N 59°13' E 010°47'0 0.0
2014-Aug-27 00:33N 59°13' E 010°47'0 0.0
2014-Aug-26 23:33N 59°13' E 010°47'0 0.0
2014-Aug-26 22:33N 59°13' E 010°47'0 0.0
2014-Aug-26 21:33N 59°13' E 010°47'0 0.0
2014-Aug-26 20:33N 59°13' E 010°47'0 0.0
2014-Aug-26 19:34N 59°13' E 010°47'0 0.0
2014-Aug-26 18:33N 59°13' E 010°47'0 0.0
2014-Aug-26 17:29N 59°13' E 010°47'0 0.4
2014-Aug-26 16:33N 59°13' E 010°47'3 3.2
2014-Aug-26 15:33N 59°12' E 010°41'4 3.7
2014-Aug-26 14:33N 59°15' E 010°36'4 3.7
2014-Aug-26 13:33N 59°19' E 010°37'3 2.6
2014-Aug-26 12:34N 59°21' E 010°34'2 1.9
2014-Aug-26 11:33N 59°23' E 010°33'5 4.5
2014-Aug-26 10:32N 59°27' E 010°29'1 0.1
2014-Aug-25 23:24N 59°26' E 010°29'0 0.0
2014-Aug-25 22:30N 59°26' E 010°29'0 0.0
2014-Aug-25 21:18N 59°26' E 010°29'0 0.0
2014-Aug-25 13:29N 59°26' E 010°29'6 6.9
2014-Aug-25 12:33N 59°31' E 010°35'21 6.7
2014-Aug-25 09:23N 59°53' E 010°39'2 2.7
2014-Aug-25 08:30N 59°54' E 010°42'0 0.0
2014-Aug-25 07:33N 59°54' E 010°42'0 0.0
2014-Aug-25 06:30N 59°54' E 010°42'0 0.0
2014-Aug-25 05:30N 59°54' E 010°42'0 0.0
2014-Aug-25 04:27N 59°54' E 010°42'0 0.0
2014-Aug-25 03:30N 59°54' E 010°42'0 0.0
2014-Aug-25 02:30N 59°54' E 010°42'0 0.0
2014-Aug-25 01:33N 59°54' E 010°42'0 0.0
2014-Aug-25 00:18N 59°54' E 010°42'0 0.0
2014-Aug-24 23:24N 59°54' E 010°42'0 0.0
2014-Aug-24 22:24N 59°54' E 010°42'0 0.0
2014-Aug-24 21:30N 59°54' E 010°42'0 0.0
2014-Aug-24 20:33N 59°54' E 010°42'0 0.0
2014-Aug-24 19:33N 59°54' E 010°42'0 0.0
2014-Aug-24 18:09N 59°54' E 010°42'0 0.0
2014-Aug-24 17:24N 59°54' E 010°42'0 0.0
2014-Aug-24 16:33N 59°54' E 010°42'0 0.0
2014-Aug-24 15:24N 59°54' E 010°42'0 0.0
2014-Aug-24 14:33N 59°54' E 010°42'0 0.0
2014-Aug-24 13:33N 59°54' E 010°42'0 0.0
2014-Aug-24 12:33N 59°54' E 010°42'0 0.0
2014-Aug-24 11:30N 59°54' E 010°42'0 0.0
2014-Aug-24 10:27N 59°54' E 010°42'0 0.0
2014-Aug-24 09:30N 59°54' E 010°42'0 0.0
2014-Aug-24 08:33N 59°54' E 010°42'0 0.0
2014-Aug-24 07:30N 59°54' E 010°42'0 0.0
2014-Aug-24 06:06N 59°54' E 010°42'0 0.0
2014-Aug-24 05:33N 59°54' E 010°42'0 0.0
2014-Aug-24 04:21N 59°54' E 010°42'0 0.0
2014-Aug-24 03:30N 59°54' E 010°42'0 0.0
2014-Aug-24 02:21N 59°54' E 010°42'0 0.0
2014-Aug-24 01:33N 59°54' E 010°42'0 0.0
2014-Aug-24 00:33N 59°54' E 010°42'0 0.0
2014-Aug-23 23:24N 59°54' E 010°42'0 0.0
2014-Aug-23 22:30N 59°54' E 010°42'0 0.0
2014-Aug-23 21:33N 59°54' E 010°42'0 0.0
2014-Aug-23 20:28N 59°54' E 010°42'0 0.0
2014-Aug-23 19:33N 59°54' E 010°42'0 0.0
2014-Aug-23 03:33N 59°54' E 010°42'0 0.0
2014-Aug-23 02:27N 59°54' E 010°42'0 0.0
2014-Aug-23 01:30N 59°54' E 010°42'0 0.0
2014-Aug-23 00:33N 59°54' E 010°42'0 0.0
2014-Aug-22 23:18N 59°54' E 010°42'0 0.0
2014-Aug-22 22:30N 59°54' E 010°42'0 0.0
2014-Aug-22 21:30N 59°54' E 010°42'0 0.0
2014-Aug-22 20:30N 59°54' E 010°42'0 0.0
2014-Aug-22 19:33N 59°54' E 010°42'0 0.0
2014-Aug-22 18:27N 59°54' E 010°42'0 0.0
2014-Aug-22 17:27N 59°54' E 010°42'0 0.0
2014-Aug-22 16:25N 59°54' E 010°42'0 0.0
2014-Aug-22 15:09N 59°54' E 010°42'0 0.0
2014-Aug-22 14:34N 59°54' E 010°42'0 0.0
2014-Aug-22 13:18N 59°54' E 010°42'24 0.9
2014-Aug-21 12:27N 59°31' E 010°36'6 6.9
2014-Aug-21 11:33N 59°25' E 010°35'7 7.1
2014-Aug-21 10:33N 59°18' E 010°41'5 4.9
2014-Aug-21 09:34N 59°14' E 010°45'1 1.0
2014-Aug-21 08:31N 59°13' E 010°47'0 0.0
2014-Aug-21 07:31N 59°13' E 010°47'0 0.0
2014-Aug-21 06:28N 59°13' E 010°47'0 0.0
2014-Aug-21 05:31N 59°13' E 010°47'0 0.0
2014-Aug-21 04:31N 59°13' E 010°47'0 0.0
2014-Aug-21 03:31N 59°13' E 010°47'0 0.0
2014-Aug-21 02:31N 59°13' E 010°47'0 0.0
2014-Aug-21 01:31N 59°13' E 010°47'0 0.0
2014-Aug-21 00:31N 59°13' E 010°47'0 0.0
2014-Aug-20 23:31N 59°13' E 010°47'0 0.0
2014-Aug-20 22:31N 59°13' E 010°47'0 0.0
2014-Aug-20 21:31N 59°13' E 010°47'0 0.0
2014-Aug-20 20:31N 59°13' E 010°47'0 0.0
2014-Aug-20 19:31N 59°13' E 010°47'0 0.0
2014-Aug-20 18:31N 59°13' E 010°47'2 2.3
2014-Aug-20 17:33N 59°11' E 010°47'5 4.6
2014-Aug-20 16:33N 59°06' E 010°48'4 4.0
2014-Aug-20 15:33N 59°03' E 010°50'6 6.5
2014-Aug-20 14:33N 58°59' E 011°00'  
Track history (hours):
 
Tides and Currents Weather Stations Pressure Air Temp Water Temp Dewpoint Dewpoint Depression Visibility Wind Speed Wind Dir Waves Ship Positions

Svanen (Norway)

Ship's website: http://www.svanen.no/english/english.php1

Last reported at 2014-Aug-30 13:27 UTC. Time now 2014-Aug-30 14:28 UTC.
Position N 59°54' E 010°42'.

Length 27 m; draft 2.8 m.

Type: Sailing vessel. MMSI: 259173000.

Date/timePositionNaut miles runAvg speedWind from/ knotsBaromVisibWave heightAir tempDewpointWater temp
2014-Aug-30 13:27N 59°54' E 010°42'0 0.0
2014-Aug-30 12:24N 59°54' E 010°42'0 0.0
2014-Aug-30 11:24N 59°54' E 010°42'0 0.0
2014-Aug-30 10:30N 59°54' E 010°42'0 0.0
2014-Aug-30 09:33N 59°54' E 010°42'0 0.0
2014-Aug-30 08:27N 59°54' E 010°42'0 0.0
2014-Aug-30 07:24N 59°54' E 010°42'0 0.0
2014-Aug-30 06:27N 59°54' E 010°42'0 0.0
2014-Aug-30 05:30N 59°54' E 010°42'0 0.0
2014-Aug-30 04:09N 59°54' E 010°42'0 0.0
2014-Aug-30 03:15N 59°54' E 010°42'0 0.0
2014-Aug-30 02:33N 59°54' E 010°42'0 0.0
2014-Aug-30 01:15N 59°54' E 010°42'0 0.0
2014-Aug-30 00:33N 59°54' E 010°42'0 0.0
2014-Aug-29 23:33N 59°54' E 010°42'0 0.0
2014-Aug-29 22:33N 59°54' E 010°42'0 0.0
2014-Aug-29 21:30N 59°54' E 010°42'0 0.0
2014-Aug-29 20:30N 59°54' E 010°42'0 0.0
2014-Aug-29 19:33N 59°54' E 010°42'0 0.0
2014-Aug-29 18:27N 59°54' E 010°42'0 0.0
2014-Aug-29 17:30N 59°54' E 010°42'0 0.0
2014-Aug-29 16:15N 59°54' E 010°42'0 0.0
2014-Aug-29 15:33N 59°54' E 010°42'0 0.0
2014-Aug-29 14:33N 59°54' E 010°42'0 0.0
2014-Aug-29 13:27N 59°54' E 010°42'0 0.0
2014-Aug-29 12:30N 59°54' E 010°42'0 0.0
2014-Aug-29 11:33N 59°54' E 010°42'0 0.0
2014-Aug-29 10:30N 59°54' E 010°42'0 0.0
2014-Aug-29 09:30N 59°54' E 010°42'0 0.0
2014-Aug-29 08:21N 59°54' E 010°42'0 0.0
2014-Aug-29 06:21N 59°54' E 010°42'0 0.0
2014-Aug-29 01:12N 59°54' E 010°42'0 0.0
2014-Aug-29 00:18N 59°54' E 010°42'0 0.0
2014-Aug-28 23:30N 59°54' E 010°42'0 0.0
2014-Aug-28 22:28N 59°54' E 010°42'0 0.0
2014-Aug-28 21:33N 59°54' E 010°42'0 0.0
2014-Aug-28 20:22N 59°54' E 010°42'0 0.0
2014-Aug-28 19:24N 59°54' E 010°42'0 0.0
2014-Aug-28 18:24N 59°54' E 010°42'0 0.0
2014-Aug-28 17:30N 59°54' E 010°42'0 0.0
2014-Aug-28 16:30N 59°54' E 010°42'0 0.0
2014-Aug-28 15:33N 59°54' E 010°42'0 0.0
2014-Aug-28 14:30N 59°54' E 010°42'0 0.0
2014-Aug-28 13:30N 59°54' E 010°42'0 0.2
2014-Aug-28 12:33N 59°54' E 010°42'24 1.0
2014-Aug-27 12:33N 59°31' E 010°36'6 6.3
2014-Aug-27 11:33N 59°25' E 010°36'6 6.6
2014-Aug-27 10:33N 59°19' E 010°40'5 5.4
2014-Aug-27 09:33N 59°14' E 010°44'1 1.4
2014-Aug-27 08:33N 59°13' E 010°47'0 0.0
2014-Aug-27 07:33N 59°13' E 010°47'0 0.0
2014-Aug-27 06:33N 59°13' E 010°47'0 0.0
2014-Aug-27 05:33N 59°13' E 010°47'0 0.0
2014-Aug-27 04:33N 59°13' E 010°47'0 0.0
2014-Aug-27 03:33N 59°13' E 010°47'0 0.0
2014-Aug-27 02:34N 59°13' E 010°47'0 0.0
2014-Aug-27 01:33N 59°13' E 010°47'0 0.0
2014-Aug-27 00:33N 59°13' E 010°47'0 0.0
2014-Aug-26 23:33N 59°13' E 010°47'0 0.0
2014-Aug-26 22:33N 59°13' E 010°47'0 0.0
2014-Aug-26 21:33N 59°13' E 010°47'0 0.0
2014-Aug-26 20:33N 59°13' E 010°47'0 0.0
2014-Aug-26 19:34N 59°13' E 010°47'0 0.0
2014-Aug-26 18:33N 59°13' E 010°47'0 0.0
2014-Aug-26 17:29N 59°13' E 010°47'0 0.4
2014-Aug-26 16:33N 59°13' E 010°47'3 3.2
2014-Aug-26 15:33N 59°12' E 010°41'4 3.7
2014-Aug-26 14:33N 59°15' E 010°36'4 3.7
2014-Aug-26 13:33N 59°19' E 010°37'3 2.6
2014-Aug-26 12:34N 59°21' E 010°34'2 1.9
2014-Aug-26 11:33N 59°23' E 010°33'5 4.5
2014-Aug-26 10:32N 59°27' E 010°29'1 0.1
2014-Aug-25 23:24N 59°26' E 010°29'0 0.0
2014-Aug-25 22:30N 59°26' E 010°29'0 0.0
2014-Aug-25 21:18N 59°26' E 010°29'0 0.0
2014-Aug-25 13:29N 59°26' E 010°29'6 6.9
2014-Aug-25 12:33N 59°31' E 010°35'21 6.7
2014-Aug-25 09:23N 59°53' E 010°39'2 2.7
2014-Aug-25 08:30N 59°54' E 010°42'0 0.0
2014-Aug-25 07:33N 59°54' E 010°42'0 0.0
2014-Aug-25 06:30N 59°54' E 010°42'0 0.0
2014-Aug-25 05:30N 59°54' E 010°42'0 0.0
2014-Aug-25 04:27N 59°54' E 010°42'0 0.0
2014-Aug-25 03:30N 59°54' E 010°42'0 0.0
2014-Aug-25 02:30N 59°54' E 010°42'0 0.0
2014-Aug-25 01:33N 59°54' E 010°42'0 0.0
2014-Aug-25 00:18N 59°54' E 010°42'0 0.0
2014-Aug-24 23:24N 59°54' E 010°42'0 0.0
2014-Aug-24 22:24N 59°54' E 010°42'0 0.0
2014-Aug-24 21:30N 59°54' E 010°42'0 0.0
2014-Aug-24 20:33N 59°54' E 010°42'0 0.0
2014-Aug-24 19:33N 59°54' E 010°42'0 0.0
2014-Aug-24 18:09N 59°54' E 010°42'0 0.0
2014-Aug-24 17:24N 59°54' E 010°42'0 0.0
2014-Aug-24 16:33N 59°54' E 010°42'0 0.0
2014-Aug-24 15:24N 59°54' E 010°42'0 0.0
2014-Aug-24 14:33N 59°54' E 010°42'0 0.0
2014-Aug-24 13:33N 59°54' E 010°42'0 0.0
2014-Aug-24 12:33N 59°54' E 010°42'0 0.0
2014-Aug-24 11:30N 59°54' E 010°42'0 0.0
2014-Aug-24 10:27N 59°54' E 010°42'0 0.0
2014-Aug-24 09:30N 59°54' E 010°42'0 0.0
2014-Aug-24 08:33N 59°54' E 010°42'0 0.0
2014-Aug-24 07:30N 59°54' E 010°42'0 0.0
2014-Aug-24 06:06N 59°54' E 010°42'0 0.0
2014-Aug-24 05:33N 59°54' E 010°42'0 0.0
2014-Aug-24 04:21N 59°54' E 010°42'0 0.0
2014-Aug-24 03:30N 59°54' E 010°42'0 0.0
2014-Aug-24 02:21N 59°54' E 010°42'0 0.0
2014-Aug-24 01:33N 59°54' E 010°42'0 0.0
2014-Aug-24 00:33N 59°54' E 010°42'0 0.0
2014-Aug-23 23:24N 59°54' E 010°42'0 0.0
2014-Aug-23 22:30N 59°54' E 010°42'0 0.0
2014-Aug-23 21:33N 59°54' E 010°42'0 0.0
2014-Aug-23 20:28N 59°54' E 010°42'0 0.0
2014-Aug-23 19:33N 59°54' E 010°42'0 0.0
2014-Aug-23 03:33N 59°54' E 010°42'0 0.0
2014-Aug-23 02:27N 59°54' E 010°42'0 0.0
2014-Aug-23 01:30N 59°54' E 010°42'0 0.0
2014-Aug-23 00:33N 59°54' E 010°42'0 0.0
2014-Aug-22 23:18N 59°54' E 010°42'0 0.0
2014-Aug-22 22:30N 59°54' E 010°42'0 0.0
2014-Aug-22 21:30N 59°54' E 010°42'0 0.0
2014-Aug-22 20:30N 59°54' E 010°42'0 0.0
2014-Aug-22 19:33N 59°54' E 010°42'0 0.0
2014-Aug-22 18:27N 59°54' E 010°42'0 0.0
2014-Aug-22 17:27N 59°54' E 010°42'0 0.0
2014-Aug-22 16:25N 59°54' E 010°42'0 0.0
2014-Aug-22 15:09N 59°54' E 010°42'0 0.0
2014-Aug-22 14:34N 59°54' E 010°42'0 0.0
2014-Aug-22 13:18N 59°54' E 010°42'24 0.9
2014-Aug-21 12:27N 59°31' E 010°36'6 6.9
2014-Aug-21 11:33N 59°25' E 010°35'7 7.1
2014-Aug-21 10:33N 59°18' E 010°41'5 4.9
2014-Aug-21 09:34N 59°14' E 010°45'1 1.0
2014-Aug-21 08:31N 59°13' E 010°47'0 0.0
2014-Aug-21 07:31N 59°13' E 010°47'0 0.0
2014-Aug-21 06:28N 59°13' E 010°47'0 0.0
2014-Aug-21 05:31N 59°13' E 010°47'0 0.0
2014-Aug-21 04:31N 59°13' E 010°47'0 0.0
2014-Aug-21 03:31N 59°13' E 010°47'0 0.0
2014-Aug-21 02:31N 59°13' E 010°47'0 0.0
2014-Aug-21 01:31N 59°13' E 010°47'0 0.0
2014-Aug-21 00:31N 59°13' E 010°47'0 0.0
2014-Aug-20 23:31N 59°13' E 010°47'0 0.0
2014-Aug-20 22:31N 59°13' E 010°47'0 0.0
2014-Aug-20 21:31N 59°13' E 010°47'0 0.0
2014-Aug-20 20:31N 59°13' E 010°47'0 0.0
2014-Aug-20 19:31N 59°13' E 010°47'0 0.0
2014-Aug-20 18:31N 59°13' E 010°47'2 2.3
2014-Aug-20 17:33N 59°11' E 010°47'5 4.6
2014-Aug-20 16:33N 59°06' E 010°48'4 4.0
2014-Aug-20 15:33N 59°03' E 010°50'6 6.5
2014-Aug-20 14:33N 58°59' E 011°00'  

Dump ship's entire track history